stylecraze.com alexa rank chart, stylecraze.com alexa rank daily changes

stylecraze.com alexa rank chart, stylecraze.com alexa rank daily changes

stylecraze.com
Actual rank:
7 605

RANK HISTORY

Date Rank Diff
2017/07/21 7 605 +20
2017/07/20 7 585 +3
2017/07/19 7 582 -22
2017/07/18 7 604 -8
2017/07/17 7 612 +12
2017/07/16 7 600 +51
2017/07/15 7 549 +63
2017/07/14 7 486 -10
2017/07/13 7 496 +41
2017/07/12 7 455 +2
2017/07/11 7 453 -13
2017/07/10 7 466 -12
2017/07/09 7 478 +8
2017/07/08 7 470 +3
2017/07/07 7 467 +1
2017/07/06 7 466 +2
2017/07/05 7 464 -14
2017/07/04 7 478 -34
2017/07/03 7 512 +16
2017/07/02 7 496 +24
2017/07/01 7 472 +15
2017/06/30 7 457 +23
2017/06/29 7 434 -2
2017/06/28 7 436 -13
2017/06/27 7 449 -31
2017/06/26 7 480 -27
2017/06/25 7 507 +11
2017/06/24 7 496 +13
2017/06/23 7 483 +16
2017/06/22 7 467 -36
2017/06/21 7 503 -44
2017/06/20 7 547 -11
2017/06/19 7 558 -17
2017/06/18 7 575 -32
2017/06/17 7 607 -4
2017/06/16 7 611 +13
2017/06/15 7 598 -11
2017/06/14 7 609 +4
2017/06/13 7 605 -33
2017/06/12 7 638 -65
2017/06/11 7 703 +4
2017/06/10 7 699 +46
2017/06/09 7 653 +29
2017/06/08 7 624 +5
2017/06/07 7 619 +31
2017/06/06 7 588 -9
2017/06/05 7 597 -18
2017/06/04 7 615 +3
2017/06/03 7 612 +12
2017/06/02 7 600 -25
2017/06/01 7 625 -5
2017/05/31 7 630 -27
2017/05/30 7 657 +5
2017/05/29 7 652 -19
2017/05/28 7 671 +9
2017/05/27 7 662 +9
2017/05/26 7 653 -20
2017/05/25 7 673 +23
2017/05/24 7 650 -31
2017/05/23 7 681 -31
2017/05/22 7 712 +40
2017/05/21 7 672

WIDGET FOR YOUR SITE

DOMAINS WITH THE NEAREST RANK

Domain Rank
datafilehost.com 7 600
nespresso.com 7 601
epa.gov 7 602
news18a.com 7 603
ygosu.com 7 604
stylecraze.com 7 605
partis.si 7 606
rediffmailpro.com 7 607
eee114.com 7 608
6play.fr 7 609
net.hr 7 610

DOMAINS WITH THE NEAREST RANK BY TLD .com

Domain Rank
gtainside.com 7 599
datafilehost.com 7 600
nespresso.com 7 601
news18a.com 7 603
ygosu.com 7 604
stylecraze.com 7 605
rediffmailpro.com 7 607
eee114.com 7 608
meipai.com 7 614
speedbit.com 7 615
porsche.com 7 617